Time;durP1;ratioP1;P1;durP2;ratioP2;P2;SDS_P1;SDS_P2;PMS_P1;PMS_P2;Temp;Humidity;BMP_temperature;BMP_pressure;BME280_temperature;BME280_humidity;BME280_pressure;Samples;Min_cycle;Max_cycle;Signal;HPM_P1;HPM_P2
2023/01/02 00:01:47;;;;;;;;;9.25;8.25;;;;;15.85;59.07;100647.53;5047492;28;63686;-45
2023/01/02 00:04:12;;;;;;;;;2.50;2.00;;;;;15.84;58.57;100641.38;5050258;28;45245;-45
2023/01/02 00:06:38;;;;;;;;;2.00;2.00;;;;;15.82;58.48;100640.59;5050749;28;53888;-46
2023/01/02 00:09:04;;;;;;;;;6.75;5.00;;;;;15.82;58.51;100640.59;5043107;28;46384;-47
2023/01/02 00:11:29;;;;;;;;;7.00;4.25;;;;;15.80;59.03;100653.03;5048679;28;45320;-49
2023/01/02 00:13:55;;;;;;;;;6.00;3.75;;;;;15.78;59.12;100654.03;5043340;28;56236;-46
2023/01/02 00:16:20;;;;;;;;;4.00;4.00;;;;;15.79;59.12;100663.66;5048953;28;50846;-45
2023/01/02 00:18:46;;;;;;;;;6.50;4.00;;;;;15.77;58.94;100658.44;5046367;28;45872;-48
2023/01/02 00:21:11;;;;;;;;;4.00;4.00;;;;;15.75;58.83;100658.50;5042782;28;52631;-45
2023/01/02 00:23:37;;;;;;;;;6.00;5.50;;;;;15.73;59.20;100665.63;5038877;28;45355;-45
2023/01/02 00:26:02;;;;;;;;;5.25;2.50;;;;;15.72;59.10;100670.97;5043049;28;45627;-46
2023/01/02 00:28:28;;;;;;;;;6.00;4.00;;;;;15.71;58.91;100670.13;5052496;28;45365;-47
2023/01/02 00:30:53;;;;;;;;;5.00;3.25;;;;;15.70;59.48;100676.31;5043848;28;45461;-49
2023/01/02 00:33:19;;;;;;;;;5.50;3.50;;;;;15.68;59.43;100670.28;5046055;28;49759;-46
2023/01/02 00:35:44;;;;;;;;;5.00;4.25;;;;;15.68;59.78;100675.56;5050621;28;61690;-45
2023/01/02 00:38:09;;;;;;;;;6.50;3.00;;;;;15.68;59.67;100677.34;5050192;28;45383;-49
2023/01/02 00:40:35;;;;;;;;;2.50;1.75;;;;;15.66;59.44;100666.84;5040741;28;45394;-49
2023/01/02 00:43:01;;;;;;;;;5.75;2.50;;;;;15.66;59.91;100663.38;5056537;28;45393;-45
2023/01/02 00:45:26;;;;;;;;;3.25;3.00;;;;;15.66;59.90;100676.56;5043769;28;45520;-47
2023/01/02 00:47:51;;;;;;;;;3.75;3.75;;;;;15.63;60.10;100674.91;5038971;28;45388;-46
2023/01/02 00:50:17;;;;;;;;;4.75;4.75;;;;;15.65;60.33;100666.94;5050692;28;58847;-46
2023/01/02 00:52:42;;;;;;;;;4.25;3.00;;;;;15.64;60.24;100671.38;5047307;28;45595;-46
2023/01/02 00:55:08;;;;;;;;;4.00;3.50;;;;;15.59;60.62;100673.38;5055174;28;53836;-45
2023/01/02 00:57:34;;;;;;;;;4.00;3.00;;;;;15.54;60.49;100670.09;5041522;28;45311;-47
2023/01/02 00:59:59;;;;;;;;;3.75;3.00;;;;;15.53;60.10;100668.41;5046564;28;50118;-45
2023/01/02 01:02:24;;;;;;;;;2.00;2.00;;;;;15.51;61.02;100670.25;5049665;28;45501;-48
2023/01/02 01:04:50;;;;;;;;;4.50;3.00;;;;;15.49;60.47;100666.81;5047985;28;58480;-46
2023/01/02 01:07:15;;;;;;;;;5.00;3.00;;;;;15.45;61.31;100667.91;5046962;28;62846;-46
2023/01/02 01:09:41;;;;;;;;;4.50;3.25;;;;;15.45;61.89;100674.03;5046032;28;45476;-45
2023/01/02 01:12:06;;;;;;;;;8.25;5.00;;;;;15.46;60.85;100682.81;5041070;28;45371;-45
2023/01/02 01:14:32;;;;;;;;;12.25;11.00;;;;;15.44;61.41;100676.75;5039248;28;45390;-49
2023/01/02 01:16:57;;;;;;;;;4.50;3.00;;;;;15.40;61.41;100676.03;5039276;28;57276;-48
2023/01/02 01:19:22;;;;;;;;;10.75;3.00;;;;;15.36;61.77;100669.22;5051645;28;56563;-47
2023/01/02 01:21:48;;;;;;;;;5.25;4.00;;;;;15.35;62.21;100680.66;5048562;28;45470;-51
2023/01/02 01:24:14;;;;;;;;;4.50;3.75;;;;;15.33;61.64;100688.69;5042396;28;67704;-46
2023/01/02 01:26:39;;;;;;;;;5.50;2.00;;;;;15.31;61.35;100693.16;5046688;28;45725;-48
2023/01/02 01:29:04;;;;;;;;;3.00;2.00;;;;;15.31;62.07;100697.56;5040223;28;50216;-49
2023/01/02 01:31:30;;;;;;;;;2.00;2.00;;;;;15.30;62.11;100695.88;5041210;28;61713;-45
2023/01/02 01:33:55;;;;;;;;;3.00;2.50;;;;;15.30;61.88;100695.88;5039251;28;64712;-48
2023/01/02 01:36:22;;;;;;;;;3.50;3.00;;;;;15.30;62.22;100699.38;5042033;28;45941;-48
2023/01/02 01:38:48;;;;;;;;;1.25;1.25;;;;;15.29;61.77;100687.09;5054900;28;45711;-46
2023/01/02 01:41:16;;;;;;;;;9.75;3.00;;;;;15.31;61.98;100685.25;5045847;28;45388;-50
2023/01/02 01:43:42;;;;;;;;;2.00;1.75;;;;;15.31;61.90;100681.75;5043376;28;45430;-47
2023/01/02 01:46:14;;;;;;;;;2.50;2.50;;;;;15.31;62.03;100682.59;5041292;28;47140;-51
2023/01/02 01:48:40;;;;;;;;;2.50;2.00;;;;;15.31;62.29;100692.31;5048810;28;45283;-46
2023/01/02 01:51:05;;;;;;;;;4.00;2.00;;;;;15.31;62.58;100695.78;5049093;28;57158;-47
2023/01/02 01:53:31;;;;;;;;;3.00;2.50;;;;;15.30;62.19;100701.16;5043326;28;45523;-44
2023/01/02 01:56:04;;;;;;;;;3.00;3.00;;;;;15.29;62.15;100699.44;5044660;28;45630;-48
2023/01/02 01:58:36;;;;;;;;;3.00;2.75;;;;;15.29;62.30;100710.81;5045410;28;45298;-50
2023/01/02 02:01:02;;;;;;;;;4.00;2.50;;;;;15.28;62.27;100711.78;5041284;28;45485;-48
2023/01/02 02:03:30;;;;;;;;;2.25;2.00;;;;;15.28;62.29;100710.91;5039609;28;67677;-45
2023/01/02 02:05:56;;;;;;;;;3.25;2.75;;;;;15.28;62.22;100724.09;5050108;28;45513;-48
2023/01/02 02:08:34;;;;;;;;;7.00;4.00;;;;;15.28;62.33;100737.25;5050234;28;45433;-51
2023/01/02 02:10:59;;;;;;;;;11.25;6.50;;;;;15.26;62.71;100741.75;5044409;28;45447;-43
2023/01/02 02:13:25;;;;;;;;;11.25;10.00;;;;;15.22;62.77;100746.31;5039028;28;60377;-47
2023/01/02 02:16:15;;;;;;;;;8.50;5.25;;;;;15.20;62.27;100748.19;5040553;28;70038;-45
2023/01/02 02:19:29;;;;;;;;;3.50;3.50;;;;;15.18;62.80;100752.66;5041481;28;45662;-47
2023/01/02 02:21:54;;;;;;;;;9.00;4.00;;;;;15.17;62.67;100756.22;5033056;28;45281;-47
2023/01/02 02:24:34;;;;;;;;;6.33;4.67;;;;;15.12;63.00;100759.09;5044029;28;45485;-44
2023/01/02 02:27:25;;;;;;;;;13.00;10.00;;;;;15.11;62.91;100769.69;5047567;28;45451;-44
2023/01/02 02:30:06;;;;;;;;;13.00;13.00;;;;;15.11;62.66;100767.91;5044953;28;45420;-47
2023/01/02 02:32:53;;;;;;;;;21.25;18.25;;;;;15.10;63.34;100766.22;5043055;28;45474;-45
2023/01/02 02:35:41;;;;;;;;;20.50;16.75;;;;;15.12;63.19;100763.47;5048232;28;45264;-49
2023/01/02 02:38:35;;;;;;;;;10.50;9.00;;;;;15.12;63.42;100759.09;5041350;28;46651;-43
2023/01/02 02:41:05;;;;;;;;;3.00;1.00;;;;;15.09;63.11;100761.84;5039407;28;46886;-46
2023/01/02 02:43:50;;;;;;;;;2.00;2.00;;;;;15.07;63.61;100766.34;5045375;28;45335;-48
2023/01/02 02:46:36;;;;;;;;;3.50;2.25;;;;;15.05;64.03;100770.81;5028135;28;45448;-48
2023/01/02 02:49:07;;;;;;;;;2.75;2.75;;;;;15.02;64.20;100759.56;5042453;28;45445;-46
2023/01/02 02:51:41;;;;;;;;;4.00;3.75;;;;;15.00;63.84;100757.84;5044012;28;46002;-44
2023/01/02 02:54:30;;;;;;;;;4.00;1.75;;;;;14.99;64.05;100760.53;5046809;28;45565;-45
2023/01/02 02:56:56;;;;;;;;;1.50;1.00;;;;;14.99;63.85;100757.91;5052926;28;45617;-45
2023/01/02 02:59:22;;;;;;;;;4.00;2.00;;;;;14.98;64.35;100756.22;5031063;28;55304;-47
2023/01/02 03:01:47;;;;;;;;;3.00;1.00;;;;;14.96;64.08;100758.91;5044734;28;46933;-45
2023/01/02 03:04:17;;;;;;;;;5.75;1.00;;;;;14.94;64.70;100766.03;5037400;28;59482;-49
2023/01/02 03:06:52;;;;;;;;;2.00;2.00;;;;;14.92;64.46;100762.59;5038380;28;45540;-50
2023/01/02 03:09:32;;;;;;;;;2.25;1.00;;;;;14.93;64.61;100769.59;5042321;28;45531;-49
2023/01/02 03:12:17;;;;;;;;;0.00;0.00;;;;;14.93;64.92;100774.84;5047815;28;45547;-46
2023/01/02 03:14:48;;;;;;;;;2.00;0.00;;;;;14.90;64.16;100777.63;5038368;28;45338;-47
2023/01/02 03:17:24;;;;;;;;;0.00;0.00;;;;;14.89;64.44;100772.41;5046995;28;45424;-49
2023/01/02 03:19:55;;;;;;;;;3.00;1.00;;;;;14.85;64.76;100770.84;5052740;28;45548;-46
2023/01/02 03:22:26;;;;;;;;;1.75;0.00;;;;;14.84;65.11;100771.75;5064153;27;45442;-47
2023/01/02 03:24:53;;;;;;;;;0.00;0.00;;;;;14.80;64.79;100757.88;5044596;28;45470;-47
2023/01/02 03:27:22;;;;;;;;;3.00;0.00;;;;;14.77;64.69;100766.78;5046543;28;50957;-47
2023/01/02 03:30:01;;;;;;;;;2.50;0.00;;;;;14.76;64.66;100762.41;5059134;27;46153;-45
2023/01/02 03:32:29;;;;;;;;;0.00;0.00;;;;;14.72;64.38;100774.03;5046334;28;45706;-47
2023/01/02 03:34:59;;;;;;;;;2.00;0.50;;;;;14.68;63.77;100764.56;5047239;28;45488;-46
2023/01/02 03:37:28;;;;;;;;;0.00;0.00;;;;;14.66;63.65;100774.31;5041857;28;45510;-49
2023/01/02 03:39:57;;;;;;;;;0.00;0.00;;;;;14.61;63.92;100773.66;5046198;28;46556;-47
2023/01/02 03:42:28;;;;;;;;;0.00;0.00;;;;;14.58;63.67;100771.97;5047410;28;45336;-46
2023/01/02 03:45:04;;;;;;;;;0.00;0.00;;;;;14.55;63.58;100782.59;5048587;28;45381;-48
2023/01/02 03:47:42;;;;;;;;;0.00;0.00;;;;;14.53;63.26;100802.03;5043922;28;45289;-51
2023/01/02 03:50:13;;;;;;;;;0.00;0.00;;;;;14.50;63.43;100800.41;5041570;28;46177;-46
2023/01/02 03:52:38;;;;;;;;;0.00;0.00;;;;;14.50;63.39;100807.44;5045420;28;45247;-49
2023/01/02 03:55:04;;;;;;;;;0.00;0.00;;;;;14.49;63.46;100808.38;5043436;28;55323;-47
2023/01/02 03:57:53;;;;;;;;;0.00;0.00;;;;;14.47;63.23;100813.69;5044174;28;45368;-47
2023/01/02 04:00:20;;;;;;;;;0.00;0.00;;;;;14.44;63.28;100819.09;5053123;28;45740;-46
2023/01/02 04:02:56;;;;;;;;;0.75;0.00;;;;;14.44;63.18;100821.72;5049718;28;45513;-47
2023/01/02 04:05:38;;;;;;;;;0.00;0.00;;;;;14.43;63.34;100826.13;5050812;28;45609;-47
2023/01/02 04:08:16;;;;;;;;;0.00;0.00;;;;;14.40;63.04;100817.50;5055566;28;45363;-46
2023/01/02 04:10:44;;;;;;;;;0.00;0.00;;;;;14.36;63.18;100824.69;5042719;28;46230;-46
2023/01/02 04:13:17;;;;;;;;;0.00;0.00;;;;;14.33;63.21;100824.78;5055237;28;45347;-44
2023/01/02 04:15:44;;;;;;;;;0.00;0.00;;;;;14.31;63.61;100816.13;5054288;28;45430;-46
2023/01/02 04:18:19;;;;;;;;;0.00;0.00;;;;;14.30;63.99;100818.81;5048992;28;45578;-48
2023/01/02 04:20:47;;;;;;;;;0.00;0.00;;;;;14.30;64.04;100821.44;5046556;28;46375;-47
2023/01/02 04:23:16;;;;;;;;;0.00;0.00;;;;;14.28;63.69;100818.88;5062933;27;45335;-43
2023/01/02 04:25:46;;;;;;;;;0.00;0.00;;;;;14.29;63.73;100825.84;5052453;28;45494;-49
2023/01/02 04:28:21;;;;;;;;;0.00;0.00;;;;;14.29;63.43;100830.25;5057949;28;45423;-46
2023/01/02 04:30:51;;;;;;;;;0.00;0.00;;;;;14.26;63.53;100835.66;5050073;28;46588;-48
2023/01/02 04:33:18;;;;;;;;;0.00;0.00;;;;;14.21;63.75;100834.03;5030566;28;45309;-50
2023/01/02 04:35:43;;;;;;;;;0.00;0.00;;;;;14.19;63.83;100840.31;5032582;28;50215;-47
2023/01/02 04:38:10;;;;;;;;;0.00;0.00;;;;;14.17;63.45;100845.63;5039888;28;47119;-49
2023/01/02 04:40:36;;;;;;;;;0.00;0.00;;;;;14.14;63.94;100837.00;5050944;28;46963;-46
2023/01/02 04:43:08;;;;;;;;;0.00;0.00;;;;;14.13;64.08;100845.78;5055140;28;45442;-48
2023/01/02 04:45:33;;;;;;;;;0.00;0.00;;;;;14.11;64.03;100845.88;5043422;28;45240;-45
2023/01/02 04:47:59;;;;;;;;;0.50;0.00;;;;;14.10;64.10;100854.69;5048273;28;51123;-44
2023/01/02 04:50:24;;;;;;;;;0.00;0.00;;;;;14.09;64.38;100868.75;5051722;28;57464;-45
2023/01/02 04:52:49;;;;;;;;;1.00;0.00;;;;;14.08;64.56;100866.16;5043949;28;65087;-45
2023/01/02 04:55:15;;;;;;;;;0.25;0.00;;;;;14.07;63.76;100867.94;5040390;28;62624;-45
2023/01/02 04:57:40;;;;;;;;;0.00;0.00;;;;;14.05;64.21;100875.91;5048165;28;45766;-44
2023/01/02 05:00:07;;;;;;;;;0.00;0.00;;;;;14.03;64.41;100882.16;5043111;28;65534;-44
2023/01/02 05:02:38;;;;;;;;;0.00;0.00;;;;;14.00;64.54;100883.13;5043949;28;47307;-43
2023/01/02 05:05:05;;;;;;;;;0.50;0.00;;;;;13.99;65.17;100881.41;5040861;28;58365;-44
2023/01/02 05:07:32;;;;;;;;;0.00;0.00;;;;;14.00;65.17;100888.38;5042809;28;46178;-45
2023/01/02 05:09:57;;;;;;;;;1.00;0.00;;;;;13.99;65.33;100894.56;5044468;28;46207;-44
2023/01/02 05:12:23;;;;;;;;;1.00;0.00;;;;;13.99;64.38;100896.38;5041648;28;59336;-44
2023/01/02 05:14:48;;;;;;;;;0.00;0.00;;;;;13.98;65.36;100907.78;5047342;28;45937;-44
2023/01/02 05:17:13;;;;;;;;;0.00;0.00;;;;;13.97;65.71;100901.69;5042842;28;65929;-44
2023/01/02 05:19:39;;;;;;;;;0.75;0.00;;;;;13.97;65.28;100906.06;5046145;28;63433;-44
2023/01/02 05:24:48;;;;;;;;;1.00;0.00;;;;;13.96;64.87;100915.75;5039347;28;45205;-45
2023/01/02 05:27:13;;;;;;;;;0.00;0.00;;;;;13.93;65.42;100922.88;5043252;28;63781;-44
2023/01/02 05:29:39;;;;;;;;;1.00;0.00;;;;;13.92;65.73;100929.94;5042878;28;59325;-45
2023/01/02 05:32:04;;;;;;;;;0.00;0.00;;;;;13.90;65.92;100934.41;5043917;28;61659;-46
2023/01/02 05:34:29;;;;;;;;;0.25;0.00;;;;;13.88;65.60;100936.22;5041978;28;45418;-43
2023/01/02 05:36:55;;;;;;;;;0.00;0.00;;;;;13.87;64.96;100942.41;5030301;28;56594;-45
2023/01/02 05:39:20;;;;;;;;;0.00;0.00;;;;;13.85;65.56;100945.09;5049604;28;66626;-45
2023/01/02 05:41:45;;;;;;;;;0.00;0.00;;;;;13.86;65.33;100956.47;5042506;28;45318;-45
2023/01/02 05:44:11;;;;;;;;;1.00;0.00;;;;;13.84;65.96;100959.13;5038919;28;61697;-46
2023/01/02 05:46:37;;;;;;;;;1.00;0.00;;;;;13.84;65.71;100960.94;5046417;28;45443;-44
2023/01/02 05:49:04;;;;;;;;;0.00;0.00;;;;;13.81;65.58;100969.81;5041191;28;46393;-45
2023/01/02 05:51:29;;;;;;;;;0.00;0.00;;;;;13.83;65.61;100973.22;5050921;28;45724;-43
2023/01/02 05:53:55;;;;;;;;;0.00;0.00;;;;;13.83;65.48;100975.00;5043701;28;45556;-45
2023/01/02 05:56:20;;;;;;;;;0.75;0.00;;;;;13.84;65.76;100971.44;5039561;28;45379;-47
2023/01/02 05:58:47;;;;;;;;;0.00;0.00;;;;;13.86;65.48;100969.63;5051708;28;46172;-44
2023/01/02 06:01:15;;;;;;;;;0.00;0.00;;;;;13.88;65.48;100977.44;5046424;28;45375;-47
2023/01/02 06:03:45;;;;;;;;;0.00;0.00;;;;;13.89;65.55;100980.03;5050238;28;45370;-45
2023/01/02 06:06:10;;;;;;;;;2.00;1.00;;;;;13.90;66.45;100967.72;5043651;28;45375;-46
2023/01/02 06:08:36;;;;;;;;;0.00;0.00;;;;;13.88;66.12;100967.78;5039868;28;59550;-48
2023/01/02 06:11:03;;;;;;;;;1.00;1.00;;;;;13.88;65.77;100980.09;5047398;28;46127;-50
2023/01/02 06:13:29;;;;;;;;;0.00;0.00;;;;;13.83;66.04;100975.84;5021128;28;45392;-49
2023/01/02 06:15:56;;;;;;;;;0.00;0.00;;;;;13.89;66.21;100984.44;5041434;28;45371;-46
2023/01/02 06:18:21;;;;;;;;;0.00;0.00;;;;;13.89;65.37;100993.19;5039330;28;45513;-49
2023/01/02 06:20:47;;;;;;;;;0.00;0.00;;;;;13.90;65.59;100987.03;5047555;28;45498;-49
2023/01/02 06:23:12;;;;;;;;;1.50;1.00;;;;;13.89;65.51;100998.44;5044317;28;54886;-47
2023/01/02 06:25:38;;;;;;;;;0.50;0.00;;;;;13.87;65.28;101005.53;5038657;28;45553;-50
2023/01/02 06:28:03;;;;;;;;;0.75;0.00;;;;;13.85;66.02;101010.84;5028709;28;58992;-49
2023/01/02 06:30:28;;;;;;;;;0.00;0.00;;;;;13.85;65.99;101002.13;5047864;28;45207;-47
2023/01/02 06:32:55;;;;;;;;;0.00;0.00;;;;;13.84;65.23;101003.88;5042071;28;54493;-46
2023/01/02 06:35:20;;;;;;;;;1.50;1.25;;;;;13.84;65.85;101010.91;5038963;28;45596;-49
2023/01/02 06:37:46;;;;;;;;;1.75;1.00;;;;;13.80;66.14;101022.47;5040231;28;46300;-48
2023/01/02 06:40:11;;;;;;;;;0.25;0.25;;;;;13.78;66.02;101019.03;5047591;28;62288;-50
2023/01/02 06:42:36;;;;;;;;;0.00;0.00;;;;;13.76;65.41;101020.88;5045796;28;61395;-48
2023/01/02 06:45:03;;;;;;;;;0.00;0.00;;;;;13.73;66.39;101016.56;5048383;28;62951;-52
2023/01/02 06:47:28;;;;;;;;;1.00;0.00;;;;;13.70;65.96;101029.81;5038499;28;45470;-46
2023/01/02 06:49:53;;;;;;;;;1.00;0.00;;;;;13.67;66.54;101036.03;5047048;28;64738;-48
2023/01/02 06:52:19;;;;;;;;;0.00;0.00;;;;;13.64;66.36;101028.25;5049135;28;59310;-48
2023/01/02 06:54:44;;;;;;;;;0.00;0.00;;;;;13.66;66.62;101033.47;5043075;28;45537;-48
2023/01/02 06:57:09;;;;;;;;;0.75;0.00;;;;;13.65;66.10;101023.84;5045124;28;46064;-50
2023/01/02 06:59:35;;;;;;;;;0.00;0.00;;;;;13.61;66.61;101023.09;5054348;28;65911;-47
2023/01/02 07:02:00;;;;;;;;;0.00;0.00;;;;;13.63;66.37;101025.69;5052243;28;59530;-47
2023/01/02 07:04:25;;;;;;;;;0.00;0.00;;;;;13.60;66.77;101021.41;5051594;28;63980;-47
2023/01/02 07:06:51;;;;;;;;;2.00;0.00;;;;;13.60;66.36;101010.03;5046602;28;45379;-46
2023/01/02 07:09:16;;;;;;;;;0.00;0.00;;;;;13.60;65.95;101029.28;5048357;28;45515;-48
2023/01/02 07:11:41;;;;;;;;;0.00;0.00;;;;;13.58;65.59;101025.84;5050810;28;45553;-50
2023/01/02 07:14:07;;;;;;;;;0.00;0.00;;;;;13.59;66.15;101035.44;5051861;28;61170;-49
2023/01/02 07:16:32;;;;;;;;;0.00;0.00;;;;;13.58;65.78;101036.38;5052263;28;59131;-47
2023/01/02 07:18:57;;;;;;;;;2.00;0.00;;;;;13.57;65.81;101034.66;5045218;28;63031;-49
2023/01/02 07:21:23;;;;;;;;;1.50;0.00;;;;;13.59;65.67;101040.69;5053908;28;60693;-45
2023/01/02 07:23:48;;;;;;;;;1.50;0.00;;;;;13.59;65.38;101038.06;5050677;28;45479;-48
2023/01/02 07:26:14;;;;;;;;;0.00;0.00;;;;;13.60;65.85;101044.22;5046373;28;45605;-51
2023/01/02 07:28:40;;;;;;;;;2.25;0.00;;;;;13.58;65.30;101046.00;5055973;28;45249;-49
2023/01/02 07:31:08;;;;;;;;;2.00;1.00;;;;;13.58;65.15;101051.28;5047962;28;45711;-51
2023/01/02 07:33:34;;;;;;;;;1.00;1.00;;;;;13.58;65.76;101049.53;5050705;28;45347;-52
2023/01/02 07:36:05;;;;;;;;;2.00;0.00;;;;;13.58;65.71;101040.75;5030341;28;48282;-48
2023/01/02 07:38:31;;;;;;;;;1.00;1.00;;;;;13.57;65.36;101042.53;5048044;28;45921;-47
2023/01/02 07:40:56;;;;;;;;;0.75;0.75;;;;;13.58;65.13;101041.63;5056052;28;45516;-49
2023/01/02 07:43:22;;;;;;;;;2.00;1.00;;;;;13.58;64.96;101049.53;5047169;28;45356;-49
2023/01/02 07:45:48;;;;;;;;;2.00;0.25;;;;;13.59;65.03;101055.63;5045835;28;45477;-52
2023/01/02 07:48:13;;;;;;;;;2.00;0.25;;;;;13.60;65.37;101062.63;5043361;28;46086;-48
2023/01/02 07:50:38;;;;;;;;;0.00;0.00;;;;;13.60;64.91;101060.00;5049219;28;53593;-51
2023/01/02 07:53:04;;;;;;;;;0.50;0.50;;;;;13.59;65.21;101071.41;5043714;28;45408;-51
2023/01/02 07:55:29;;;;;;;;;0.50;0.50;;;;;13.60;65.12;101078.41;5049015;28;66852;-49
2023/01/02 07:57:54;;;;;;;;;1.00;0.00;;;;;13.59;64.83;101087.19;5044511;28;56859;-49
2023/01/02 08:00:20;;;;;;;;;2.00;0.00;;;;;13.57;65.11;101097.75;5053563;28;61643;-49
2023/01/02 08:02:48;;;;;;;;;0.50;0.00;;;;;13.57;64.67;101102.16;5048184;28;45631;-46
2023/01/02 08:05:13;;;;;;;;;0.00;0.00;;;;;13.55;64.63;101107.47;5052158;28;46234;-48
2023/01/02 08:07:39;;;;;;;;;0.00;0.00;;;;;13.53;65.37;101105.78;5044029;28;45423;-48
2023/01/02 08:10:04;;;;;;;;;1.75;0.00;;;;;13.50;64.86;101106.75;5056135;28;61592;-52
2023/01/02 08:12:30;;;;;;;;;0.00;0.00;;;;;13.50;64.73;101121.69;5048934;28;45424;-50
2023/01/02 08:14:55;;;;;;;;;0.00;0.00;;;;;13.48;64.49;101130.47;5040263;28;61164;-52
2023/01/02 08:17:21;;;;;;;;;0.00;0.00;;;;;13.46;64.61;101137.56;5042942;28;64728;-47
2023/01/02 08:19:46;;;;;;;;;0.00;0.00;;;;;13.47;64.80;101134.03;5041093;28;54526;-52
2023/01/02 08:22:11;;;;;;;;;0.00;0.00;;;;;13.48;64.69;101129.63;5054373;28;45502;-50
2023/01/02 08:24:37;;;;;;;;;0.25;0.25;;;;;13.45;64.57;101130.56;5023393;28;46791;-47
2023/01/02 08:27:02;;;;;;;;;2.75;1.00;;;;;13.47;64.96;101143.66;5043085;28;51651;-46
2023/01/02 08:29:27;;;;;;;;;0.00;0.00;;;;;13.44;64.52;101144.63;5044266;28;45377;-50
2023/01/02 08:31:53;;;;;;;;;0.00;0.00;;;;;13.45;64.34;101162.09;5050912;28;46408;-51
2023/01/02 08:34:18;;;;;;;;;0.00;0.00;;;;;13.44;64.35;101160.41;5053197;28;47565;-47
2023/01/02 08:36:44;;;;;;;;;0.00;0.00;;;;;13.48;64.07;101161.16;5053395;28;45481;-50
2023/01/02 08:39:09;;;;;;;;;0.25;0.00;;;;;13.46;64.35;101155.09;5050032;28;47858;-47
2023/01/02 08:41:37;;;;;;;;;0.50;0.00;;;;;13.47;64.30;101157.69;5050706;28;45935;-47
2023/01/02 08:44:02;;;;;;;;;3.50;1.00;;;;;13.49;64.20;101170.75;5041642;28;45467;-49
2023/01/02 08:46:30;;;;;;;;;0.75;0.50;;;;;13.52;64.61;101181.19;5046282;28;45434;-46
2023/01/02 08:48:55;;;;;;;;;1.25;0.00;;;;;13.52;64.43;101182.97;5043852;28;45170;-45
2023/01/02 08:51:21;;;;;;;;;0.25;0.00;;;;;13.50;63.96;101179.53;5054706;28;45546;-45
2023/01/02 08:53:46;;;;;;;;;1.50;1.50;;;;;13.51;64.27;101197.88;5054014;28;46320;-48
2023/01/02 08:56:20;;;;;;;;;2.00;1.00;;;;;13.53;64.32;101210.97;5046564;28;59915;-47
2023/01/02 08:59:04;;;;;;;;;1.00;1.00;;;;;13.52;64.37;101225.03;5048660;28;45311;-47
2023/01/02 09:01:30;;;;;;;;;2.00;0.75;;;;;13.54;63.85;101231.09;5051409;28;45289;-48
2023/01/02 09:03:55;;;;;;;;;2.00;1.25;;;;;13.53;64.20;101245.16;5049128;28;46210;-47
2023/01/02 09:06:22;;;;;;;;;2.00;0.00;;;;;13.52;63.97;101259.22;5041338;28;45674;-45
2023/01/02 09:08:48;;;;;;;;;1.00;0.00;;;;;13.50;63.90;101268.94;5043370;28;45370;-46
2023/01/02 09:11:16;;;;;;;;;1.00;0.00;;;;;13.48;63.76;101268.97;5053344;28;45411;-44
2023/01/02 09:13:42;;;;;;;;;1.00;0.00;;;;;13.45;63.99;101277.78;5041676;28;46395;-49
2023/01/02 09:16:08;;;;;;;;;1.00;1.00;;;;;13.44;63.86;101275.25;5045848;28;45727;-47
2023/01/02 09:18:34;;;;;;;;;3.00;1.00;;;;;13.43;64.00;101274.34;5042301;28;45291;-48
2023/01/02 09:21:00;;;;;;;;;1.00;1.00;;;;;13.40;63.86;101269.22;5052715;28;45323;-46
2023/01/02 09:23:26;;;;;;;;;4.25;4.25;;;;;13.40;64.36;101252.56;5047418;28;45280;-49
2023/01/02 09:25:51;;;;;;;;;3.50;2.00;;;;;13.39;64.40;101241.19;5043623;28;45331;-44
2023/01/02 09:28:16;;;;;;;;;1.00;1.00;;;;;13.41;64.10;101247.25;5045945;28;45618;-45
2023/01/02 09:30:42;;;;;;;;;0.00;0.00;;;;;13.40;63.68;101263.97;5051194;28;45250;-49
2023/01/02 09:33:07;;;;;;;;;0.25;0.25;;;;;13.42;63.73;101266.50;5051715;28;63530;-46
2023/01/02 09:35:34;;;;;;;;;1.00;0.00;;;;;13.41;64.20;101289.31;5042226;28;45292;-48
2023/01/02 09:37:59;;;;;;;;;1.00;1.00;;;;;13.42;64.10;101292.81;5046931;28;45427;-49
2023/01/02 09:40:25;;;;;;;;;0.00;0.00;;;;;13.43;64.20;101305.91;5043588;28;45463;-55
2023/01/02 09:42:51;;;;;;;;;1.00;1.00;;;;;13.43;64.11;101298.03;5038515;28;48298;-45
2023/01/02 09:45:17;;;;;;;;;1.00;1.00;;;;;13.43;63.94;101297.16;5045107;28;61941;-48
2023/01/02 09:47:45;;;;;;;;;1.00;1.00;;;;;13.46;64.08;101302.34;5050045;28;45311;-50
2023/01/02 09:50:18;;;;;;;;;1.00;1.00;;;;;13.47;63.75;101298.78;5045188;28;45346;-50
2023/01/02 09:52:53;;;;;;;;;0.25;0.00;;;;;13.50;63.86;101305.75;5053044;28;45457;-50
2023/01/02 09:55:33;;;;;;;;;1.00;1.00;;;;;13.50;63.68;101311.00;5049623;28;45734;-52
2023/01/02 09:58:17;;;;;;;;;2.00;1.75;;;;;13.52;63.51;101338.09;5043685;28;45609;-49
2023/01/02 10:00:46;;;;;;;;;0.00;0.00;;;;;13.52;63.90;101352.09;5051338;28;45348;-50
2023/01/02 10:03:29;;;;;;;;;0.00;0.00;;;;;13.52;63.86;101356.50;5047574;28;46145;-46
2023/01/02 10:06:13;;;;;;;;;0.75;0.75;;;;;13.50;64.01;101358.31;5046926;28;45272;-45
2023/01/02 10:08:38;;;;;;;;;4.00;1.00;;;;;13.50;64.01;101359.19;5044210;28;45364;-48
2023/01/02 10:11:32;;;;;;;;;3.67;1.00;;;;;13.49;63.57;101354.81;5052654;28;45505;-49
2023/01/02 10:14:07;;;;;;;;;1.00;1.00;;;;;13.48;63.46;101355.75;5043699;28;45400;-47
2023/01/02 10:16:38;;;;;;;;;2.00;1.00;;;;;13.44;63.79;101352.34;5048341;28;45780;-48
2023/01/02 10:19:22;;;;;;;;;0.00;0.00;;;;;13.46;63.52;101344.41;5037726;28;45554;-51
2023/01/02 10:21:51;;;;;;;;;3.25;1.00;;;;;13.47;63.58;101339.13;5030260;28;45843;-48
2023/01/02 10:24:25;;;;;;;;;3.00;1.75;;;;;13.50;63.82;101332.88;5030359;28;47413;-49
2023/01/02 10:26:53;;;;;;;;;1.00;1.00;;;;;13.51;63.80;101329.38;5057716;28;45403;-48
2023/01/02 10:29:29;;;;;;;;;2.00;2.00;;;;;13.51;63.69;101324.09;5046192;28;45463;-49
2023/01/02 10:31:57;;;;;;;;;2.75;1.25;;;;;13.53;63.45;101331.91;5034678;28;45487;-49
2023/01/02 10:34:23;;;;;;;;;1.00;1.00;;;;;13.53;63.76;101329.28;5045899;28;46215;-50
2023/01/02 10:36:49;;;;;;;;;2.50;2.00;;;;;13.54;63.51;101331.03;5056114;28;45442;-50
2023/01/02 10:39:18;;;;;;;;;2.00;2.00;;;;;13.54;63.65;101341.53;5049186;28;45435;-46
2023/01/02 10:41:48;;;;;;;;;2.00;1.75;;;;;13.56;63.62;101350.25;5054400;28;45572;-49
2023/01/02 10:44:24;;;;;;;;;1.00;1.00;;;;;13.57;63.47;101355.47;5054022;28;46138;-50
2023/01/02 10:46:50;;;;;;;;;2.00;2.00;;;;;13.59;63.91;101352.78;5049084;28;45292;-48
2023/01/02 10:49:15;;;;;;;;;1.25;1.25;;;;;13.58;63.21;101361.56;5050590;28;45462;-47
2023/01/02 10:51:45;;;;;;;;;2.00;2.00;;;;;13.58;63.50;101372.09;5051714;28;62554;-52
2023/01/02 10:54:10;;;;;;;;;2.25;2.00;;;;;13.57;63.14;101375.66;5050420;28;46400;-47
2023/01/02 10:56:37;;;;;;;;;1.50;1.00;;;;;13.55;63.50;101382.72;5046740;28;54085;-50
2023/01/02 10:59:17;;;;;;;;;2.00;2.00;;;;;13.55;63.22;101391.47;5040150;28;45261;-50
2023/01/02 11:01:51;;;;;;;;;1.00;1.00;;;;;13.55;63.34;101404.63;5047459;28;45497;-45
2023/01/02 11:04:23;;;;;;;;;1.75;1.00;;;;;13.55;63.73;101403.75;5040663;28;46837;-50
2023/01/02 11:07:00;;;;;;;;;1.00;1.00;;;;;13.55;63.36;101390.63;5043590;28;45680;-44
2023/01/02 11:09:28;;;;;;;;;1.75;1.75;;;;;13.57;63.17;101387.03;5046805;28;45476;-50
2023/01/02 11:11:56;;;;;;;;;3.00;2.00;;;;;13.60;63.43;101384.31;5048332;28;45471;-51
2023/01/02 11:14:26;;;;;;;;;1.00;1.00;;;;;13.60;63.22;101386.94;5043836;28;45591;-52
2023/01/02 11:16:52;;;;;;;;;1.50;1.00;;;;;13.62;62.75;101398.28;5044553;28;45539;-47
2023/01/02 11:19:21;;;;;;;;;1.75;1.75;;;;;13.63;62.96;101407.91;5043423;28;45547;-53
2023/01/02 11:21:48;;;;;;;;;2.00;2.00;;;;;13.64;63.15;101414.88;5049445;28;45443;-51
2023/01/02 11:24:18;;;;;;;;;2.00;2.00;;;;;13.68;62.19;101423.53;5049406;28;45558;-47
2023/01/02 11:26:46;;;;;;;;;2.00;1.00;;;;;13.67;62.32;101416.56;5047747;28;45876;-50
2023/01/02 11:29:20;;;;;;;;;5.00;1.75;;;;;13.67;62.30;101413.94;5044709;28;45558;-49
2023/01/02 11:31:50;;;;;;;;;3.25;2.00;;;;;13.73;62.50;101402.38;5044366;28;45552;-48
2023/01/02 11:36:04;;;;;;;;;2.00;0.00;;;;;14.52;68.70;101398.13;5075762;27;45472;-85